Time;durP1;ratioP1;P1;durP2;ratioP2;P2;SDS_P1;SDS_P2;PMS_P1;PMS_P2;Temp;Humidity;BMP_temperature;BMP_pressure;BME280_temperature;BME280_humidity;BME280_pressure;Samples;Min_cycle;Max_cycle;Signal;HPM_P1;HPM_P2
2023/10/03 00:01:43;;;;;;;9.50;4.75;;;;;;;;;;5022014;28;20029;-68
2023/10/03 00:04:10;;;;;;;11.70;4.30;;;;;;;;;;5021209;28;20030;-68
2023/10/03 00:06:39;;;;;;;9.20;4.32;;;;;;;;;;5025617;28;20035;-68
2023/10/03 00:09:12;;;;;;;8.38;4.47;;;;;;;;;;5020627;28;20030;-68
2023/10/03 00:11:39;;;;;;;8.82;3.95;;;;;;;;;;5017650;28;20882;-68
2023/10/03 00:14:07;;;;;;;7.68;4.05;;;;;;;;;;5019279;28;20037;-68
2023/10/03 00:16:34;;;;;;;7.80;4.47;;;;;;;;;;5019485;28;20259;-68
2023/10/03 00:19:00;;;;;;;10.85;4.32;;;;;;;;;;5020257;28;20009;-69
2023/10/03 00:21:27;;;;;;;6.95;4.90;;;;;;;;;;5021977;28;20037;-68
2023/10/03 00:23:53;;;;;;;10.95;4.45;;;;;;;;;;5016352;28;20025;-68
2023/10/03 00:26:22;;;;;;;7.68;4.03;;;;;;;;;;5022651;28;20033;-68
2023/10/03 00:28:49;;;;;;;12.23;4.50;;;;;;;;;;5013814;28;20025;-69
2023/10/03 00:31:15;;;;;;;10.23;4.30;;;;;;;;;;5019747;28;20025;-69
2023/10/03 00:33:41;;;;;;;10.10;4.55;;;;;;;;;;5020773;28;20029;-68
2023/10/03 00:36:16;;;;;;;6.93;4.00;;;;;;;;;;5022081;28;20036;-68
2023/10/03 00:38:42;;;;;;;11.52;4.50;;;;;;;;;;5023365;28;20014;-68
2023/10/03 00:41:08;;;;;;;9.15;4.40;;;;;;;;;;5021427;28;20467;-69
2023/10/03 00:43:34;;;;;;;11.43;5.65;;;;;;;;;;5017499;28;20030;-68
2023/10/03 00:46:01;;;;;;;8.75;4.15;;;;;;;;;;5015603;28;20904;-68
2023/10/03 00:48:27;;;;;;;5.55;3.53;;;;;;;;;;5016989;28;20038;-68
2023/10/03 00:50:54;;;;;;;11.38;4.60;;;;;;;;;;5019685;28;20029;-68
2023/10/03 00:53:20;;;;;;;8.25;3.58;;;;;;;;;;5015681;28;20037;-68
2023/10/03 00:55:47;;;;;;;7.85;3.83;;;;;;;;;;5019765;28;20424;-68
2023/10/03 01:00:43;;;;;;;9.50;4.13;;;;;;;;;;5021679;28;20026;-68
2023/10/03 01:03:28;;;;;;;5.85;3.50;;;;;;;;;;5016986;28;20028;-68
2023/10/03 01:05:58;;;;;;;5.57;4.20;;;;;;;;;;5018491;28;20018;-68
2023/10/03 01:08:24;;;;;;;6.72;3.95;;;;;;;;;;5021672;28;20489;-69
2023/10/03 01:10:55;;;;;;;6.63;3.72;;;;;;;;;;5014876;28;20658;-69
2023/10/03 01:13:24;;;;;;;8.70;3.67;;;;;;;;;;5020846;28;20065;-69
2023/10/03 01:15:50;;;;;;;5.65;3.50;;;;;;;;;;5018032;28;20079;-68
2023/10/03 01:18:22;;;;;;;7.03;3.50;;;;;;;;;;5023201;28;20409;-68
2023/10/03 01:20:52;;;;;;;5.57;3.80;;;;;;;;;;5018667;28;20028;-69
2023/10/03 01:23:19;;;;;;;8.40;3.47;;;;;;;;;;5021220;28;20527;-69
2023/10/03 01:25:45;;;;;;;6.63;3.88;;;;;;;;;;5024612;28;20508;-69
2023/10/03 01:28:12;;;;;;;9.70;4.35;;;;;;;;;;5020306;28;20474;-68
2023/10/03 01:30:40;;;;;;;7.15;3.60;;;;;;;;;;5021802;28;20033;-68
2023/10/03 01:33:07;;;;;;;8.68;3.70;;;;;;;;;;5009807;28;20949;-68
2023/10/03 01:35:33;;;;;;;6.43;4.20;;;;;;;;;;5012736;28;20026;-68
2023/10/03 01:37:59;;;;;;;13.25;5.28;;;;;;;;;;5017388;28;20057;-68
2023/10/03 01:40:26;;;;;;;10.27;3.80;;;;;;;;;;5017793;28;20136;-68
2023/10/03 01:42:52;;;;;;;11.27;3.47;;;;;;;;;;5018881;28;20541;-69
2023/10/03 01:45:25;;;;;;;7.55;4.60;;;;;;;;;;5012364;28;20468;-68
2023/10/03 01:47:51;;;;;;;5.43;3.92;;;;;;;;;;5014698;28;20029;-68
2023/10/03 01:50:19;;;;;;;8.98;4.05;;;;;;;;;;5010668;28;20041;-68
2023/10/03 01:52:46;;;;;;;6.45;3.70;;;;;;;;;;5014467;28;20029;-68
2023/10/03 01:55:12;;;;;;;8.77;3.97;;;;;;;;;;5018406;28;20029;-69
2023/10/03 01:57:40;;;;;;;8.45;3.65;;;;;;;;;;5021415;28;20044;-68
2023/10/03 02:00:25;;;;;;;4.65;3.60;;;;;;;;;;5023118;28;20512;-68
2023/10/03 02:02:52;;;;;;;;;;;;;;;;;;5023335;28;20022;-68
2023/10/03 02:05:19;;;;;;;9.60;4.18;;;;;;;;;;5027186;28;20004;-69
2023/10/03 02:07:48;;;;;;;6.15;3.75;;;;;;;;;;5023568;28;20037;-69
2023/10/03 02:10:15;;;;;;;6.55;3.55;;;;;;;;;;5017385;28;20033;-68
2023/10/03 02:12:56;;;;;;;5.13;3.88;;;;;;;;;;5020251;28;20029;-69
2023/10/03 02:15:23;;;;;;;3.83;3.08;;;;;;;;;;5020291;28;20550;-68
2023/10/03 02:17:53;;;;;;;8.43;3.30;;;;;;;;;;5018395;28;20531;-69
2023/10/03 02:20:25;;;;;;;8.30;3.60;;;;;;;;;;5023112;28;20025;-69
2023/10/03 02:22:54;;;;;;;6.70;4.13;;;;;;;;;;5018018;28;20497;-68
2023/10/03 02:25:22;;;;;;;6.88;3.55;;;;;;;;;;5024238;28;20512;-69
2023/10/03 02:27:49;;;;;;;7.70;3.78;;;;;;;;;;5021088;28;20414;-69
2023/10/03 02:30:19;;;;;;;8.35;3.83;;;;;;;;;;5022784;28;20029;-69
2023/10/03 02:32:45;;;;;;;13.48;3.67;;;;;;;;;;5016443;28;20050;-68
2023/10/03 02:35:14;;;;;;;8.27;3.17;;;;;;;;;;5036491;28;20033;-68
2023/10/03 02:37:40;;;;;;;7.20;3.92;;;;;;;;;;5018417;28;20017;-68
2023/10/03 02:40:07;;;;;;;9.25;2.97;;;;;;;;;;5023035;28;20053;-69
2023/10/03 02:42:38;;;;;;;7.72;3.75;;;;;;;;;;5020185;28;20052;-68
2023/10/03 02:45:05;;;;;;;6.30;3.78;;;;;;;;;;5024098;28;20656;-70
2023/10/03 02:47:32;;;;;;;5.82;3.13;;;;;;;;;;5021931;28;20053;-69
2023/10/03 02:49:59;;;;;;;6.70;3.20;;;;;;;;;;5021720;28;20033;-69
2023/10/03 02:52:25;;;;;;;6.13;3.17;;;;;;;;;;5022760;28;20036;-68
2023/10/03 02:54:51;;;;;;;8.93;3.30;;;;;;;;;;5019777;28;20033;-69
2023/10/03 02:57:18;;;;;;;4.50;3.38;;;;;;;;;;5022154;28;20022;-70
2023/10/03 02:59:44;;;;;;;8.48;3.15;;;;;;;;;;5024576;28;20577;-70
2023/10/03 03:02:14;;;;;;;7.22;3.58;;;;;;;;;;5020036;28;20026;-69
2023/10/03 03:04:41;;;;;;;8.07;3.45;;;;;;;;;;5020813;28;20045;-68
2023/10/03 03:07:07;;;;;;;7.75;3.25;;;;;;;;;;5023605;28;20033;-69
2023/10/03 03:09:35;;;;;;;6.28;3.33;;;;;;;;;;5024647;28;20064;-69
2023/10/03 03:12:02;;;;;;;6.22;3.00;;;;;;;;;;5030163;28;20536;-68
2023/10/03 03:14:28;;;;;;;6.97;3.40;;;;;;;;;;5025029;28;20390;-68
2023/10/03 03:16:54;;;;;;;8.73;3.40;;;;;;;;;;5021144;28;20049;-68
2023/10/03 03:19:21;;;;;;;7.28;3.05;;;;;;;;;;5022739;28;20061;-68
2023/10/03 03:21:50;;;;;;;4.95;3.25;;;;;;;;;;5015121;28;20025;-69
2023/10/03 03:24:17;;;;;;;5.05;2.70;;;;;;;;;;5017677;28;20075;-69
2023/10/03 03:26:47;;;;;;;11.02;3.20;;;;;;;;;;5013960;28;20032;-69
2023/10/03 03:29:31;;;;;;;5.25;3.63;;;;;;;;;;5024261;28;20393;-68
2023/10/03 03:31:57;;;;;;;4.63;2.63;;;;;;;;;;5020438;28;20814;-68
2023/10/03 03:34:23;;;;;;;9.82;2.80;;;;;;;;;;5017945;28;20029;-68
2023/10/03 03:36:54;;;;;;;6.95;3.08;;;;;;;;;;5039809;28;20029;-68
2023/10/03 03:39:20;;;;;;;8.70;2.78;;;;;;;;;;5014412;28;20636;-69
2023/10/03 03:41:49;;;;;;;8.23;3.45;;;;;;;;;;5046017;28;20029;-68
2023/10/03 03:44:18;;;;;;;7.82;2.50;;;;;;;;;;5025166;28;20624;-68
2023/10/03 03:46:44;;;;;;;6.13;2.47;;;;;;;;;;5020072;28;20050;-68
2023/10/03 03:49:14;;;;;;;3.42;2.80;;;;;;;;;;5022226;28;20385;-68
2023/10/03 03:51:40;;;;;;;9.43;2.90;;;;;;;;;;5018423;28;20049;-68
2023/10/03 03:54:11;;;;;;;11.63;3.33;;;;;;;;;;5022457;28;20574;-68
2023/10/03 03:56:39;;;;;;;8.02;2.45;;;;;;;;;;5020070;28;20038;-68
2023/10/03 03:59:06;;;;;;;6.32;3.38;;;;;;;;;;5015621;28;20017;-68
2023/10/03 04:01:33;;;;;;;6.35;2.83;;;;;;;;;;5020874;28;20022;-68
2023/10/03 04:04:00;;;;;;;8.95;2.80;;;;;;;;;;5022319;28;20280;-68
2023/10/03 04:06:26;;;;;;;6.18;2.38;;;;;;;;;;5020327;28;20029;-69
2023/10/03 04:08:52;;;;;;;5.60;2.67;;;;;;;;;;5021233;28;21640;-68
2023/10/03 04:11:18;;;;;;;8.68;2.90;;;;;;;;;;5012592;28;20740;-69
2023/10/03 04:13:50;;;;;;;7.53;3.50;;;;;;;;;;5021446;28;20021;-68
2023/10/03 04:16:32;;;;;;;5.53;2.40;;;;;;;;;;5022503;28;20246;-68
2023/10/03 04:18:58;;;;;;;4.85;2.40;;;;;;;;;;5023161;28;20032;-71
2023/10/03 04:21:27;;;;;;;5.63;2.63;;;;;;;;;;5021615;28;20036;-68
2023/10/03 04:23:53;;;;;;;3.67;2.22;;;;;;;;;;5021584;28;20035;-68
2023/10/03 04:26:19;;;;;;;8.13;2.38;;;;;;;;;;5018971;28;20056;-68
2023/10/03 04:28:46;;;;;;;10.02;3.33;;;;;;;;;;5015768;28;20121;-69
2023/10/03 04:31:12;;;;;;;4.32;2.50;;;;;;;;;;5023069;28;20469;-68
2023/10/03 04:33:39;;;;;;;8.00;2.60;;;;;;;;;;5015459;28;20047;-68
2023/10/03 04:36:09;;;;;;;5.28;2.42;;;;;;;;;;5021912;28;20218;-68
2023/10/03 04:38:35;;;;;;;6.47;2.60;;;;;;;;;;5018295;28;20029;-68
2023/10/03 04:41:08;;;;;;;5.78;3.05;;;;;;;;;;5020339;28;20041;-68
2023/10/03 04:43:37;;;;;;;6.82;2.65;;;;;;;;;;5018994;28;20026;-69
2023/10/03 04:46:04;;;;;;;5.82;2.83;;;;;;;;;;5019382;28;20055;-68
2023/10/03 04:48:30;;;;;;;6.88;3.05;;;;;;;;;;5022334;28;20112;-68
2023/10/03 04:50:59;;;;;;;8.20;3.35;;;;;;;;;;5016835;28;20051;-69
2023/10/03 04:53:25;;;;;;;5.45;2.67;;;;;;;;;;5022992;28;20225;-68
2023/10/03 04:55:52;;;;;;;4.05;2.42;;;;;;;;;;5018383;28;20512;-68
2023/10/03 04:58:18;;;;;;;7.85;2.80;;;;;;;;;;5019516;28;20112;-68
2023/10/03 05:00:44;;;;;;;8.63;3.33;;;;;;;;;;5015930;28;20018;-69
2023/10/03 05:03:10;;;;;;;7.13;3.50;;;;;;;;;;5018568;28;20029;-68
2023/10/03 05:05:37;;;;;;;6.95;2.50;;;;;;;;;;5024836;28;20635;-69
2023/10/03 05:08:03;;;;;;;7.03;2.60;;;;;;;;;;5019105;28;20037;-69
2023/10/03 05:10:30;;;;;;;6.25;2.55;;;;;;;;;;5022989;28;20029;-69
2023/10/03 05:12:57;;;;;;;5.50;2.45;;;;;;;;;;5019633;28;20060;-68
2023/10/03 05:15:26;;;;;;;8.25;3.10;;;;;;;;;;5020456;28;20508;-69
2023/10/03 05:17:54;;;;;;;11.00;3.08;;;;;;;;;;5021887;28;20432;-68
2023/10/03 05:20:20;;;;;;;6.85;2.60;;;;;;;;;;5024407;28;20018;-69
2023/10/03 05:22:46;;;;;;;9.25;3.38;;;;;;;;;;5017408;28;20032;-68
2023/10/03 05:25:13;;;;;;;5.40;3.75;;;;;;;;;;5020227;28;20037;-68
2023/10/03 05:27:49;;;;;;;5.72;2.60;;;;;;;;;;5009770;28;20128;-68
2023/10/03 05:30:15;;;;;;;5.82;2.78;;;;;;;;;;5036705;28;20591;-68
2023/10/03 05:32:46;;;;;;;6.35;2.90;;;;;;;;;;5026280;28;20033;-68
2023/10/03 05:35:12;;;;;;;6.47;2.53;;;;;;;;;;5023042;28;20508;-68
2023/10/03 05:37:39;;;;;;;7.78;3.25;;;;;;;;;;5019471;28;20029;-68
2023/10/03 05:40:12;;;;;;;5.30;2.70;;;;;;;;;;5013805;28;20053;-67
2023/10/03 05:42:43;;;;;;;5.68;2.33;;;;;;;;;;5020998;28;20022;-67
2023/10/03 05:45:12;;;;;;;5.43;3.05;;;;;;;;;;5031551;28;20120;-68
2023/10/03 05:47:39;;;;;;;11.93;3.33;;;;;;;;;;5017255;28;20033;-68
2023/10/03 05:50:06;;;;;;;4.50;2.70;;;;;;;;;;5020543;28;20385;-68
2023/10/03 05:52:32;;;;;;;7.68;2.90;;;;;;;;;;5014167;28;20538;-68
2023/10/03 05:54:58;;;;;;;5.78;3.20;;;;;;;;;;5017049;28;20029;-68
2023/10/03 05:57:24;;;;;;;6.85;3.13;;;;;;;;;;5022809;28;20017;-68
2023/10/03 05:59:51;;;;;;;8.70;3.15;;;;;;;;;;5018089;28;20025;-68
2023/10/03 06:02:17;;;;;;;7.05;2.50;;;;;;;;;;5016299;28;20032;-68
2023/10/03 06:04:43;;;;;;;6.00;2.85;;;;;;;;;;5017111;28;20087;-68
2023/10/03 06:07:11;;;;;;;5.63;2.80;;;;;;;;;;5011426;28;20021;-68
2023/10/03 06:09:37;;;;;;;4.40;2.80;;;;;;;;;;5016387;28;20254;-68
2023/10/03 06:12:04;;;;;;;6.90;2.60;;;;;;;;;;5021979;28;20059;-68
2023/10/03 06:14:30;;;;;;;7.82;3.92;;;;;;;;;;5021204;28;20040;-68
2023/10/03 06:16:56;;;;;;;11.55;2.65;;;;;;;;;;5021417;28;20029;-69
2023/10/03 06:19:22;;;;;;;3.55;2.53;;;;;;;;;;5012189;28;20499;-69
2023/10/03 06:21:48;;;;;;;12.32;2.60;;;;;;;;;;5023959;28;20155;-67
2023/10/03 06:24:15;;;;;;;9.35;3.20;;;;;;;;;;5019880;28;20029;-67
2023/10/03 06:26:44;;;;;;;6.72;2.72;;;;;;;;;;5022723;28;20163;-67
2023/10/03 06:29:12;;;;;;;5.15;2.28;;;;;;;;;;5020464;28;20029;-67
2023/10/03 06:31:38;;;;;;;10.93;2.63;;;;;;;;;;5024041;28;20179;-67
2023/10/03 06:34:04;;;;;;;3.42;2.22;;;;;;;;;;5018533;28;20055;-68
2023/10/03 06:36:31;;;;;;;2.70;2.08;;;;;;;;;;5034505;28;20037;-68
2023/10/03 06:38:58;;;;;;;9.18;2.55;;;;;;;;;;5019254;28;20032;-68
2023/10/03 06:41:26;;;;;;;7.28;2.22;;;;;;;;;;5027562;28;20033;-66
2023/10/03 06:43:52;;;;;;;7.45;2.80;;;;;;;;;;5026349;28;20025;-67
2023/10/03 06:46:18;;;;;;;4.43;2.33;;;;;;;;;;5029873;28;20152;-67
2023/10/03 06:48:52;;;;;;;6.15;2.38;;;;;;;;;;5024511;28;20071;-68
2023/10/03 06:51:18;;;;;;;7.50;2.58;;;;;;;;;;5060343;28;20037;-67
2023/10/03 06:53:47;;;;;;;6.57;2.40;;;;;;;;;;5025184;28;20029;-68
2023/10/03 06:56:13;;;;;;;8.07;2.60;;;;;;;;;;5029799;28;20067;-68
2023/10/03 06:58:39;;;;;;;6.13;2.30;;;;;;;;;;5025214;28;20033;-67
2023/10/03 07:01:05;;;;;;;3.90;2.13;;;;;;;;;;5021824;28;20121;-67
2023/10/03 07:03:31;;;;;;;6.80;2.55;;;;;;;;;;5025426;28;20029;-68
2023/10/03 07:05:58;;;;;;;11.52;2.70;;;;;;;;;;5016445;28;20029;-68
2023/10/03 07:08:28;;;;;;;5.65;2.35;;;;;;;;;;5019578;28;20076;-68
2023/10/03 07:10:57;;;;;;;6.30;2.28;;;;;;;;;;5025611;28;20021;-67
2023/10/03 07:13:26;;;;;;;9.02;2.85;;;;;;;;;;5024042;28;20029;-68
2023/10/03 07:15:53;;;;;;;9.18;2.45;;;;;;;;;;5025149;28;20833;-67
2023/10/03 07:18:21;;;;;;;5.50;2.20;;;;;;;;;;5021977;28;20076;-67
2023/10/03 07:20:47;;;;;;;3.92;2.38;;;;;;;;;;5022047;28;20029;-68
2023/10/03 07:23:13;;;;;;;7.32;3.08;;;;;;;;;;5023934;28;20029;-67
2023/10/03 07:25:39;;;;;;;9.10;2.90;;;;;;;;;;5023670;28;20516;-69
2023/10/03 07:28:05;;;;;;;7.85;2.70;;;;;;;;;;5024733;28;20041;-67
2023/10/03 07:30:32;;;;;;;8.65;2.40;;;;;;;;;;5025967;28;20056;-69
2023/10/03 07:32:59;;;;;;;5.75;2.40;;;;;;;;;;5026078;28;20118;-68
2023/10/03 07:35:25;;;;;;;6.45;2.53;;;;;;;;;;5023123;28;20026;-67
2023/10/03 07:37:52;;;;;;;6.55;2.90;;;;;;;;;;5013133;28;20029;-68
2023/10/03 07:40:18;;;;;;;6.53;2.20;;;;;;;;;;5027531;28;20409;-67
2023/10/03 07:42:44;;;;;;;8.63;2.88;;;;;;;;;;5025460;28;20030;-68
2023/10/03 07:45:11;;;;;;;6.35;2.40;;;;;;;;;;5017452;28;20033;-69
2023/10/03 07:47:39;;;;;;;7.70;3.97;;;;;;;;;;5000933;28;20179;-66
2023/10/03 07:50:05;;;;;;;7.60;2.20;;;;;;;;;;5017625;28;20030;-66
2023/10/03 07:52:32;;;;;;;4.47;2.03;;;;;;;;;;5015483;28;20052;-74
2023/10/03 07:54:59;;;;;;;9.30;2.40;;;;;;;;;;5012968;28;20037;-66
2023/10/03 07:57:26;;;;;;;4.97;2.15;;;;;;;;;;5012420;28;20075;-70
2023/10/03 07:59:53;;;;;;;4.63;2.25;;;;;;;;;;5017372;28;20065;-69
2023/10/03 08:02:26;;;;;;;3.63;2.10;;;;;;;;;;5002792;28;20083;-65
2023/10/03 08:04:52;;;;;;;12.23;2.95;;;;;;;;;;5017728;28;20458;-69
2023/10/03 08:07:22;;;;;;;9.02;2.47;;;;;;;;;;5008597;28;20025;-69
2023/10/03 08:09:51;;;;;;;8.05;2.40;;;;;;;;;;5015258;28;20084;-69
2023/10/03 08:12:28;;;;;;;4.68;2.20;;;;;;;;;;5021101;28;20044;-68
2023/10/03 08:14:55;;;;;;;9.65;2.97;;;;;;;;;;5020151;28;20040;-68
2023/10/03 08:17:26;;;;;;;11.60;2.80;;;;;;;;;;5011168;28;20518;-68
2023/10/03 08:19:52;;;;;;;8.40;2.42;;;;;;;;;;5019988;28;20155;-66
2023/10/03 08:22:20;;;;;;;4.05;2.47;;;;;;;;;;5016896;28;20755;-68
2023/10/03 08:24:46;;;;;;;9.50;2.42;;;;;;;;;;5015970;28;20040;-66
2023/10/03 08:27:19;;;;;;;4.18;2.70;;;;;;;;;;5016028;28;20296;-68
2023/10/03 08:29:50;;;;;;;7.10;2.55;;;;;;;;;;5015747;28;20400;-65
2023/10/03 08:32:16;;;;;;;8.75;2.28;;;;;;;;;;5030686;28;20524;-66
2023/10/03 08:34:44;;;;;;;5.63;2.30;;;;;;;;;;5013939;28;20429;-67
2023/10/03 08:37:18;;;;;;;12.68;3.00;;;;;;;;;;5026679;28;20485;-66
2023/10/03 08:39:51;;;;;;;8.80;2.70;;;;;;;;;;5011530;28;20041;-66
2023/10/03 08:42:36;;;;;;;7.13;2.75;;;;;;;;;;5028040;28;20030;-67
2023/10/03 08:45:16;;;;;;;5.22;2.35;;;;;;;;;;5017541;28;20029;-68
2023/10/03 08:47:48;;;;;;;15.15;2.85;;;;;;;;;;5015005;28;20026;-66
2023/10/03 08:50:29;;;;;;;7.15;2.63;;;;;;;;;;5015121;28;20025;-65
2023/10/03 08:52:56;;;;;;;6.75;2.40;;;;;;;;;;5013425;28;20058;-65
2023/10/03 08:55:26;;;;;;;6.68;2.72;;;;;;;;;;5017057;28;20572;-67
2023/10/03 08:57:52;;;;;;;6.50;2.75;;;;;;;;;;5017129;28;20360;-67
2023/10/03 09:00:25;;;;;;;4.80;2.53;;;;;;;;;;5013586;28;20033;-68
2023/10/03 09:03:09;;;;;;;8.70;2.20;;;;;;;;;;5031518;28;20052;-67
2023/10/03 09:05:39;;;;;;;7.63;2.45;;;;;;;;;;5015981;28;20121;-67
2023/10/03 09:08:08;;;;;;;6.25;2.20;;;;;;;;;;5011887;28;20034;-68
2023/10/03 09:10:34;;;;;;;3.45;2.15;;;;;;;;;;5018884;28;20032;-68
2023/10/03 09:13:03;;;;;;;10.60;3.17;;;;;;;;;;5011262;28;20103;-69
2023/10/03 09:15:37;;;;;;;9.25;3.65;;;;;;;;;;5016165;28;20068;-68
2023/10/03 09:18:09;;;;;;;7.43;2.67;;;;;;;;;;5014960;28;20047;-69
2023/10/03 09:20:35;;;;;;;8.95;3.05;;;;;;;;;;5015537;28;20029;-68
2023/10/03 09:23:05;;;;;;;7.97;2.78;;;;;;;;;;5013500;28;20598;-68
2023/10/03 09:25:32;;;;;;;7.40;2.72;;;;;;;;;;5014656;28;20142;-68
2023/10/03 09:28:05;;;;;;;5.13;2.75;;;;;;;;;;5021189;28;20159;-70
2023/10/03 09:30:42;;;;;;;6.00;2.60;;;;;;;;;;5022422;28;20033;-71
2023/10/03 09:33:09;;;;;;;6.22;2.67;;;;;;;;;;5020944;28;20033;-66
2023/10/03 09:35:39;;;;;;;11.57;2.90;;;;;;;;;;5015485;28;20052;-65
2023/10/03 09:38:08;;;;;;;7.95;2.72;;;;;;;;;;5015405;28;20049;-67
2023/10/03 09:40:49;;;;;;;6.72;2.35;;;;;;;;;;5014030;28;20040;-66
2023/10/03 09:43:28;;;;;;;14.02;3.95;;;;;;;;;;5011475;28;20052;-65
2023/10/03 09:46:00;;;;;;;7.18;2.58;;;;;;;;;;5029449;28;20494;-68
2023/10/03 09:48:26;;;;;;;5.78;2.55;;;;;;;;;;5015914;28;20025;-67
2023/10/03 09:50:53;;;;;;;10.32;3.10;;;;;;;;;;5014573;28;20091;-68
2023/10/03 09:53:27;;;;;;;8.05;3.30;;;;;;;;;;5011593;28;20111;-66
2023/10/03 09:55:54;;;;;;;5.85;2.70;;;;;;;;;;5015355;28;20120;-66
2023/10/03 09:58:31;;;;;;;8.48;2.20;;;;;;;;;;5009024;28;20041;-65
2023/10/03 10:00:57;;;;;;;6.93;2.55;;;;;;;;;;5015117;28;20040;-66
2023/10/03 10:03:28;;;;;;;5.72;2.10;;;;;;;;;;5014962;28;20044;-67
2023/10/03 10:06:12;;;;;;;5.47;2.58;;;;;;;;;;5012429;28;20478;-67
2023/10/03 10:08:46;;;;;;;7.80;2.90;;;;;;;;;;5016811;28;20143;-68
2023/10/03 10:11:13;;;;;;;5.28;2.42;;;;;;;;;;5016417;28;20302;-68
2023/10/03 10:13:45;;;;;;;5.45;2.30;;;;;;;;;;5015357;28;20037;-68
2023/10/03 10:18:46;;;;;;;4.95;2.45;;;;;;;;;;5017536;28;20066;-66
2023/10/03 10:21:31;;;;;;;6.47;2.17;;;;;;;;;;5017010;28;20030;-65
2023/10/03 10:24:15;;;;;;;9.30;2.90;;;;;;;;;;5018186;28;20532;-67
2023/10/03 10:26:59;;;;;;;2.90;1.85;;;;;;;;;;5018626;28;20145;-69
2023/10/03 10:29:25;;;;;;;7.95;2.88;;;;;;;;;;5011412;28;20030;-69
2023/10/03 10:31:58;;;;;;;5.60;2.13;;;;;;;;;;5015644;28;20033;-69
2023/10/03 10:34:27;;;;;;;8.40;2.65;;;;;;;;;;5019617;28;20040;-68
2023/10/03 10:37:04;;;;;;;2.60;2.05;;;;;;;;;;5017787;28;20355;-67
2023/10/03 10:39:49;;;;;;;5.13;2.42;;;;;;;;;;5034440;28;20056;-70
2023/10/03 10:42:16;;;;;;;5.95;3.00;;;;;;;;;;5019118;28;20029;-67
2023/10/03 10:45:01;;;;;;;8.13;2.35;;;;;;;;;;5017342;28;20037;-70
2023/10/03 10:47:28;;;;;;;7.18;2.42;;;;;;;;;;5020673;28;20077;-69
2023/10/03 10:50:00;;;;;;;8.57;2.30;;;;;;;;;;5019348;28;20040;-67
2023/10/03 10:52:29;;;;;;;7.28;2.55;;;;;;;;;;5017768;28;20056;-67
2023/10/03 10:54:56;;;;;;;7.45;2.38;;;;;;;;;;5013212;28;20065;-68
2023/10/03 10:57:26;;;;;;;6.50;2.33;;;;;;;;;;5018252;28;20076;-66
2023/10/03 10:59:53;;;;;;;5.22;2.15;;;;;;;;;;5014958;28;20497;-67
2023/10/03 11:02:24;;;;;;;9.05;2.30;;;;;;;;;;5018566;28;20041;-69
2023/10/03 11:05:01;;;;;;;6.40;2.42;;;;;;;;;;5017895;28;20446;-66
2023/10/03 11:07:28;;;;;;;8.35;2.40;;;;;;;;;;5019719;28;21049;-67
2023/10/03 11:09:55;;;;;;;7.63;2.17;;;;;;;;;;5011911;28;20026;-67
2023/10/03 11:12:27;;;;;;;5.80;2.58;;;;;;;;;;5016673;28;20260;-69
2023/10/03 11:14:56;;;;;;;8.43;2.35;;;;;;;;;;5012192;28;20467;-67
2023/10/03 11:17:23;;;;;;;5.65;2.30;;;;;;;;;;5014948;28;20022;-66
2023/10/03 11:19:50;;;;;;;6.50;2.05;;;;;;;;;;5016050;28;20102;-66
2023/10/03 11:22:17;;;;;;;5.30;2.38;;;;;;;;;;5011952;28;20025;-68
2023/10/03 11:24:44;;;;;;;7.18;2.28;;;;;;;;;;5008158;28;20090;-66
2023/10/03 11:27:21;;;;;;;4.57;1.85;;;;;;;;;;5014262;28;20037;-65
2023/10/03 11:29:48;;;;;;;4.80;2.13;;;;;;;;;;5015050;28;20064;-68
2023/10/03 11:32:20;;;;;;;4.20;2.03;;;;;;;;;;5014858;28;20091;-66
2023/10/03 11:34:48;;;;;;;5.63;2.10;;;;;;;;;;5017864;28;20029;-67
2023/10/03 11:37:34;;;;;;;3.50;2.15;;;;;;;;;;5015411;28;20085;-69
2023/10/03 11:39:59;;;;;;;;;;;;;;;;;;5017744;28;20040;-65
2023/10/03 11:42:26;;;;;;;5.63;2.40;;;;;;;;;;5016470;28;19917;-65
2023/10/03 11:45:01;;;;;;;3.97;2.60;;;;;;;;;;5014998;28;20213;-66
2023/10/03 11:47:28;;;;;;;3.08;1.92;;;;;;;;;;5016436;28;20409;-66
2023/10/03 11:49:57;;;;;;;4.97;2.35;;;;;;;;;;5018166;28;20036;-67
2023/10/03 11:52:24;;;;;;;2.47;1.90;;;;;;;;;;5027812;28;20030;-64
2023/10/03 11:54:50;;;;;;;4.82;2.05;;;;;;;;;;5011650;28;20126;-65
2023/10/03 11:57:17;;;;;;;6.15;2.50;;;;;;;;;;5016585;28;20099;-65
2023/10/03 11:59:43;;;;;;;4.68;2.17;;;;;;;;;;5016070;28;20026;-64
2023/10/03 12:02:11;;;;;;;4.55;2.03;;;;;;;;;;5013266;28;20472;-66
2023/10/03 12:04:40;;;;;;;6.43;2.33;;;;;;;;;;5014773;28;20033;-65
2023/10/03 12:07:06;;;;;;;4.88;2.38;;;;;;;;;;5013392;28;20025;-65
2023/10/03 12:09:32;;;;;;;6.70;2.20;;;;;;;;;;5012064;28;20529;-65
2023/10/03 12:12:00;;;;;;;5.30;2.35;;;;;;;;;;5016395;28;20036;-65
2023/10/03 12:14:28;;;;;;;7.78;2.35;;;;;;;;;;5014383;28;20021;-66
2023/10/03 12:16:54;;;;;;;6.45;2.20;;;;;;;;;;5012338;28;20511;-65
2023/10/03 12:19:21;;;;;;;7.50;2.60;;;;;;;;;;5014511;28;20438;-67
2023/10/03 12:21:47;;;;;;;5.70;2.78;;;;;;;;;;5015122;28;20040;-67
2023/10/03 12:24:14;;;;;;;8.10;2.97;;;;;;;;;;5016281;28;20034;-66
2023/10/03 12:26:41;;;;;;;4.82;2.80;;;;;;;;;;5016536;28;20036;-67
2023/10/03 12:29:07;;;;;;;5.65;2.53;;;;;;;;;;5013246;28;20393;-68
2023/10/03 12:31:34;;;;;;;6.13;3.17;;;;;;;;;;5013674;28;20029;-67
2023/10/03 12:34:01;;;;;;;4.63;2.38;;;;;;;;;;5017289;28;20029;-66
2023/10/03 12:36:34;;;;;;;8.05;2.47;;;;;;;;;;5015344;28;20038;-65
2023/10/03 12:39:10;;;;;;;7.63;3.03;;;;;;;;;;5016395;28;20540;-66
2023/10/03 12:41:37;;;;;;;4.68;2.60;;;;;;;;;;5016632;28;20504;-65
2023/10/03 12:44:04;;;;;;;5.85;3.15;;;;;;;;;;5016830;28;20117;-65
2023/10/03 12:46:30;;;;;;;7.70;3.13;;;;;;;;;;5016121;28;20566;-66
2023/10/03 12:48:56;;;;;;;4.15;2.40;;;;;;;;;;5009909;28;20091;-65
2023/10/03 12:51:23;;;;;;;5.72;3.20;;;;;;;;;;5014945;28;20030;-65
2023/10/03 12:53:52;;;;;;;7.63;2.97;;;;;;;;;;5046531;28;20069;-65
2023/10/03 12:56:18;;;;;;;6.75;3.47;;;;;;;;;;5015093;28;20132;-66
2023/10/03 12:58:45;;;;;;;4.38;2.75;;;;;;;;;;5014898;28;20040;-66
2023/10/03 13:01:12;;;;;;;9.82;2.72;;;;;;;;;;5015451;28;20457;-66
2023/10/03 13:03:39;;;;;;;5.85;2.60;;;;;;;;;;5017704;28;20017;-66
2023/10/03 13:06:06;;;;;;;4.75;2.75;;;;;;;;;;5014596;28;20661;-66
2023/10/03 13:08:32;;;;;;;5.70;3.00;;;;;;;;;;5014193;28;20481;-66
2023/10/03 13:11:01;;;;;;;5.85;2.60;;;;;;;;;;5012927;28;20038;-66
2023/10/03 13:13:28;;;;;;;7.65;3.00;;;;;;;;;;5016882;28;20045;-66
2023/10/03 13:15:54;;;;;;;6.35;2.85;;;;;;;;;;5015446;28;20029;-67
2023/10/03 13:18:23;;;;;;;5.07;2.53;;;;;;;;;;5015349;28;20992;-67
2023/10/03 13:20:50;;;;;;;4.72;2.38;;;;;;;;;;5012690;28;20052;-66
2023/10/03 13:23:16;;;;;;;4.00;2.30;;;;;;;;;;5016949;28;20427;-64
2023/10/03 13:25:42;;;;;;;6.70;2.97;;;;;;;;;;5013641;28;20542;-63
2023/10/03 13:28:10;;;;;;;5.32;2.50;;;;;;;;;;5017930;28;20030;-66
2023/10/03 13:30:37;;;;;;;10.55;2.90;;;;;;;;;;5015507;28;20025;-64
2023/10/03 13:33:03;;;;;;;6.38;2.60;;;;;;;;;;5006569;28;20079;-65
2023/10/03 13:35:33;;;;;;;9.20;2.80;;;;;;;;;;5013628;28;20033;-65
2023/10/03 13:37:59;;;;;;;9.15;2.50;;;;;;;;;;5013941;28;20100;-66
2023/10/03 13:40:27;;;;;;;6.43;3.22;;;;;;;;;;5013712;28;20045;-64
2023/10/03 13:42:54;;;;;;;5.70;2.80;;;;;;;;;;5012622;28;20443;-65
2023/10/03 13:45:20;;;;;;;10.02;2.72;;;;;;;;;;5032441;28;20030;-65
2023/10/03 13:47:47;;;;;;;4.50;2.33;;;;;;;;;;5016151;28;20749;-65
2023/10/03 13:50:17;;;;;;;6.30;2.80;;;;;;;;;;5016929;28;20034;-65
2023/10/03 13:52:45;;;;;;;8.45;3.05;;;;;;;;;;5018688;28;20453;-66
2023/10/03 13:55:15;;;;;;;6.35;2.63;;;;;;;;;;5018922;28;20022;-65
2023/10/03 13:57:42;;;;;;;5.05;2.42;;;;;;;;;;5016491;28;20483;-65
2023/10/03 14:00:12;;;;;;;6.32;2.90;;;;;;;;;;5020140;28;20067;-67
2023/10/03 14:02:38;;;;;;;5.40;2.50;;;;;;;;;;5011525;28;20120;-66
2023/10/03 14:05:05;;;;;;;6.03;3.20;;;;;;;;;;5016656;28;20030;-66
2023/10/03 14:07:31;;;;;;;4.63;2.50;;;;;;;;;;5016348;28;20087;-66
2023/10/03 14:10:02;;;;;;;7.10;2.70;;;;;;;;;;5018012;28;20042;-66
2023/10/03 14:12:30;;;;;;;6.00;2.75;;;;;;;;;;5020119;28;21183;-66
2023/10/03 14:14:57;;;;;;;5.45;3.20;;;;;;;;;;5018723;28;20041;-65
2023/10/03 14:17:24;;;;;;;4.72;2.63;;;;;;;;;;5017338;28;20073;-66
2023/10/03 14:19:51;;;;;;;4.30;2.70;;;;;;;;;;5018181;28;20025;-65
2023/10/03 14:22:18;;;;;;;6.38;2.47;;;;;;;;;;5020777;28;20188;-65
2023/10/03 14:24:44;;;;;;;6.78;3.30;;;;;;;;;;5015942;28;20124;-65
2023/10/03 14:27:11;;;;;;;6.28;2.80;;;;;;;;;;5016230;28;20033;-64
2023/10/03 14:29:42;;;;;;;8.50;2.88;;;;;;;;;;5016278;28;20029;-65
2023/10/03 14:32:10;;;;;;;7.57;2.97;;;;;;;;;;5017223;28;20033;-65
2023/10/03 14:34:37;;;;;;;6.18;2.95;;;;;;;;;;5019931;28;20037;-64
2023/10/03 14:37:04;;;;;;;6.88;3.33;;;;;;;;;;5020474;28;20048;-65
2023/10/03 14:39:32;;;;;;;4.95;2.70;;;;;;;;;;5019138;28;20045;-65
2023/10/03 14:41:58;;;;;;;6.28;3.40;;;;;;;;;;5016923;28;20045;-66
2023/10/03 14:44:24;;;;;;;5.85;3.00;;;;;;;;;;5020325;28;20254;-64
2023/10/03 14:46:50;;;;;;;10.05;3.70;;;;;;;;;;5019610;28;20035;-65
2023/10/03 14:49:17;;;;;;;11.27;4.47;;;;;;;;;;5017657;28;20029;-64
2023/10/03 14:51:43;;;;;;;7.50;3.33;;;;;;;;;;5018770;28;20032;-64
2023/10/03 14:54:11;;;;;;;9.07;3.90;;;;;;;;;;5015264;28;20201;-64
2023/10/03 14:56:37;;;;;;;10.25;3.60;;;;;;;;;;5018493;28;20033;-65